Adriatic Id — VRFP6 — position and weather

sailwx.info

Track history (hours):
 
Tides and Currents Weather Stations Pressure Air Temp Water Temp Dewpoint Dewpoint Depression Visibility Wind Speed Wind Dir Waves Ship Positions

Adriatic Id

Last reported at 2015-Mar-29 08:17 UTC. Time now 2015-Mar-30 10:43 UTC.
Position N 25°09' E 121°23'.

Length 158 m; draft 9.2 m.

Type: Cargo ship. MMSI: 477559800.

Date/timePositionNaut miles runAvg speedWind from/ knotsBaromVisibWave heightAir tempDewpointWater temp
2015-Mar-29 08:17N 25°09' E 121°23'0 0.0
2015-Mar-29 05:29N 25°09' E 121°23'0 0.0
2015-Mar-28 23:11N 25°09' E 121°23'0 0.0
2015-Mar-28 22:17N 25°09' E 121°23'118 3.5
2015-Mar-27 12:25N 24°35' E 119°19'2211.8
2015-Mar-27 10:32N 24°27' E 118°56'1111.5
2015-Mar-27 09:33N 24°23' E 118°45'1311.3
2015-Mar-27 08:24N 24°19' E 118°31'1011.2
2015-Mar-27 07:33N 24°18' E 118°21'1010.5
2015-Mar-27 06:33N 24°21' E 118°09'9 8.4
2015-Mar-27 05:32N 24°27' E 118°03'6 4.6
2015-Mar-27 04:18N 24°33' E 118°05'0 0.0
2015-Mar-27 03:18N 24°33' E 118°05'0 0.0
2015-Mar-27 02:06N 24°33' E 118°05'0 0.0
2015-Mar-27 01:30N 24°33' E 118°05'0 0.0
2015-Mar-27 00:30N 24°33' E 118°05'0 0.0
2015-Mar-26 23:33N 24°33' E 118°05'0 0.0
2015-Mar-26 22:33N 24°33' E 118°05'0 0.0
2015-Mar-26 21:18N 24°33' E 118°05'0 0.0
2015-Mar-26 20:12N 24°33' E 118°05'0 0.0
2015-Mar-26 17:03N 24°33' E 118°05'0 0.0
2015-Mar-26 11:09N 24°33' E 118°05'0 0.0
2015-Mar-26 07:12N 24°33' E 118°05'0 0.0
2015-Mar-26 06:30N 24°33' E 118°05'0 0.0
2015-Mar-26 05:30N 24°33' E 118°05'0 0.0
2015-Mar-26 03:28N 24°33' E 118°05'5 5.6
2015-Mar-26 02:33N 24°28' E 118°03'10 9.8
2015-Mar-26 01:32N 24°20' E 118°10'2 2.2
2015-Mar-26 00:27N 24°19' E 118°13'0 0.0
2015-Mar-25 23:33N 24°19' E 118°13'0 0.1
2015-Mar-25 22:33N 24°19' E 118°13'0 0.0
2015-Mar-25 21:21N 24°19' E 118°13'0 0.0
2015-Mar-25 20:33N 24°19' E 118°13'0 0.0
2015-Mar-25 00:20N 24°19' E 118°13'0 0.0
2015-Mar-24 23:14N 24°19' E 118°13'0 0.1
2015-Mar-24 22:32N 24°19' E 118°13'6 6.4
2015-Mar-24 21:33N 24°16' E 118°19'7 6.6
2015-Mar-24 20:33N 24°10' E 118°17'7 7.3
2015-Mar-24 19:33N 24°05' E 118°11'7 6.9
2015-Mar-24 18:33N 23°60' E 118°06'7 7.2
2015-Mar-24 17:33N 23°55' E 118°00'9 7.7
2015-Mar-24 16:25N 23°49' E 117°53'472 9.1
2015-Mar-22 12:33N 20°11' E 110°21'  
Track history (hours):
 
Tides and Currents Weather Stations Pressure Air Temp Water Temp Dewpoint Dewpoint Depression Visibility Wind Speed Wind Dir Waves Ship Positions

Adriatic Id

Last reported at 2015-Mar-29 08:17 UTC. Time now 2015-Mar-30 10:43 UTC.
Position N 25°09' E 121°23'.

Length 158 m; draft 9.2 m.

Type: Cargo ship. MMSI: 477559800.

Date/timePositionNaut miles runAvg speedWind from/ knotsBaromVisibWave heightAir tempDewpointWater temp
2015-Mar-29 08:17N 25°09' E 121°23'0 0.0
2015-Mar-29 05:29N 25°09' E 121°23'0 0.0
2015-Mar-28 23:11N 25°09' E 121°23'0 0.0
2015-Mar-28 22:17N 25°09' E 121°23'118 3.5
2015-Mar-27 12:25N 24°35' E 119°19'2211.8
2015-Mar-27 10:32N 24°27' E 118°56'1111.5
2015-Mar-27 09:33N 24°23' E 118°45'1311.3
2015-Mar-27 08:24N 24°19' E 118°31'1011.2
2015-Mar-27 07:33N 24°18' E 118°21'1010.5
2015-Mar-27 06:33N 24°21' E 118°09'9 8.4
2015-Mar-27 05:32N 24°27' E 118°03'6 4.6
2015-Mar-27 04:18N 24°33' E 118°05'0 0.0
2015-Mar-27 03:18N 24°33' E 118°05'0 0.0
2015-Mar-27 02:06N 24°33' E 118°05'0 0.0
2015-Mar-27 01:30N 24°33' E 118°05'0 0.0
2015-Mar-27 00:30N 24°33' E 118°05'0 0.0
2015-Mar-26 23:33N 24°33' E 118°05'0 0.0
2015-Mar-26 22:33N 24°33' E 118°05'0 0.0
2015-Mar-26 21:18N 24°33' E 118°05'0 0.0
2015-Mar-26 20:12N 24°33' E 118°05'0 0.0
2015-Mar-26 17:03N 24°33' E 118°05'0 0.0
2015-Mar-26 11:09N 24°33' E 118°05'0 0.0
2015-Mar-26 07:12N 24°33' E 118°05'0 0.0
2015-Mar-26 06:30N 24°33' E 118°05'0 0.0
2015-Mar-26 05:30N 24°33' E 118°05'0 0.0
2015-Mar-26 03:28N 24°33' E 118°05'5 5.6
2015-Mar-26 02:33N 24°28' E 118°03'10 9.8
2015-Mar-26 01:32N 24°20' E 118°10'2 2.2
2015-Mar-26 00:27N 24°19' E 118°13'0 0.0
2015-Mar-25 23:33N 24°19' E 118°13'0 0.1
2015-Mar-25 22:33N 24°19' E 118°13'0 0.0
2015-Mar-25 21:21N 24°19' E 118°13'0 0.0
2015-Mar-25 20:33N 24°19' E 118°13'0 0.0
2015-Mar-25 00:20N 24°19' E 118°13'0 0.0
2015-Mar-24 23:14N 24°19' E 118°13'0 0.1
2015-Mar-24 22:32N 24°19' E 118°13'6 6.4
2015-Mar-24 21:33N 24°16' E 118°19'7 6.6
2015-Mar-24 20:33N 24°10' E 118°17'7 7.3
2015-Mar-24 19:33N 24°05' E 118°11'7 6.9
2015-Mar-24 18:33N 23°60' E 118°06'7 7.2
2015-Mar-24 17:33N 23°55' E 118°00'9 7.7
2015-Mar-24 16:25N 23°49' E 117°53'472 9.1
2015-Mar-22 12:33N 20°11' E 110°21'  

Dump ship's entire track history